Time;durP1;ratioP1;P1;durP2;ratioP2;P2;SDS_P1;SDS_P2;PMS_P1;PMS_P2;Temp;Humidity;BMP_temperature;BMP_pressure;BME280_temperature;BME280_humidity;BME280_pressure;Samples;Min_cycle;Max_cycle;Signal;HPM_P1;HPM_P2
2023/09/07 00:04:22;;;;;;;3.40;3.10;;;;;;;;;;5429821;22;20443;-81
2023/09/07 00:06:49;;;;;;;3.17;2.88;;;;;;;;;;5056237;28;20887;-82
2023/09/07 00:09:16;;;;;;;3.20;3.00;;;;;;;;;;5058584;28;20472;-82
2023/09/07 00:11:42;;;;;;;3.08;2.83;;;;;;;;;;5057950;28;20385;-82
2023/09/07 00:14:08;;;;;;;3.30;3.10;;;;;;;;;;5043956;28;20402;-82
2023/09/07 00:16:35;;;;;;;3.80;3.05;;;;;;;;;;5039110;28;20395;-81
2023/09/07 00:19:02;;;;;;;3.92;3.08;;;;;;;;;;5038454;28;20382;-83
2023/09/07 00:21:28;;;;;;;3.33;3.05;;;;;;;;;;5033063;28;20409;-81
2023/09/07 00:23:55;;;;;;;3.28;3.08;;;;;;;;;;5037041;28;20419;-82
2023/09/07 00:26:21;;;;;;;3.40;2.90;;;;;;;;;;5037251;28;20437;-81
2023/09/07 00:28:47;;;;;;;4.18;3.05;;;;;;;;;;5037502;28;20409;-81
2023/09/07 00:31:13;;;;;;;2.95;2.75;;;;;;;;;;5038330;28;20414;-81
2023/09/07 00:33:39;;;;;;;2.95;2.70;;;;;;;;;;5036723;28;20394;-81
2023/09/07 00:36:05;;;;;;;3.20;2.92;;;;;;;;;;5036963;28;20387;-81
2023/09/07 00:38:31;;;;;;;3.05;2.83;;;;;;;;;;5034749;28;20894;-81
2023/09/07 00:40:57;;;;;;;3.30;3.00;;;;;;;;;;5035143;28;20391;-82
2023/09/07 00:43:23;;;;;;;4.22;2.90;;;;;;;;;;5038610;28;20383;-83
2023/09/07 00:45:50;;;;;;;3.40;2.83;;;;;;;;;;5037553;28;20414;-82
2023/09/07 00:48:16;;;;;;;3.20;3.00;;;;;;;;;;5037149;28;20395;-82
2023/09/07 00:50:43;;;;;;;3.22;3.00;;;;;;;;;;5036670;28;20393;-82
2023/09/07 00:53:09;;;;;;;3.50;3.20;;;;;;;;;;5035954;28;20411;-82
2023/09/07 00:55:36;;;;;;;3.60;3.35;;;;;;;;;;5035157;28;20449;-83
2023/09/07 00:58:03;;;;;;;3.47;3.17;;;;;;;;;;5036573;28;20403;-82
2023/09/07 01:00:29;;;;;;;3.58;3.28;;;;;;;;;;5037238;28;20387;-82
2023/09/07 01:02:55;;;;;;;3.60;3.30;;;;;;;;;;5034117;28;20402;-83
2023/09/07 01:05:25;;;;;;;3.10;2.90;;;;;;;;;;5037389;28;20419;-82
2023/09/07 01:07:54;;;;;;;3.17;2.90;;;;;;;;;;5035690;28;20445;-82
2023/09/07 01:10:22;;;;;;;3.75;3.15;;;;;;;;;;5036320;28;20451;-84
2023/09/07 01:12:48;;;;;;;3.47;3.20;;;;;;;;;;5037469;28;20389;-82
2023/09/07 01:15:14;;;;;;;3.00;2.80;;;;;;;;;;5035126;28;20888;-82
2023/09/07 01:17:40;;;;;;;3.57;3.27;;;;;;;;;;5036319;28;20527;-81
2023/09/07 01:20:09;;;;;;;3.50;3.25;;;;;;;;;;5036462;28;20466;-82
2023/09/07 01:22:36;;;;;;;3.40;3.20;;;;;;;;;;5037872;28;20416;-82
2023/09/07 01:25:02;;;;;;;3.47;3.13;;;;;;;;;;5038592;28;20431;-82
2023/09/07 01:27:28;;;;;;;3.13;2.70;;;;;;;;;;5036492;28;20379;-82
2023/09/07 01:29:55;;;;;;;3.10;2.90;;;;;;;;;;5036272;28;20398;-82
2023/09/07 01:32:21;;;;;;;3.33;3.08;;;;;;;;;;5036427;28;20406;-82
2023/09/07 01:34:47;;;;;;;3.60;2.83;;;;;;;;;;5036212;28;20920;-82
2023/09/07 01:37:13;;;;;;;3.20;2.88;;;;;;;;;;5030989;28;20395;-82
2023/09/07 01:39:39;;;;;;;2.78;2.58;;;;;;;;;;5038417;28;20478;-82
2023/09/07 01:42:05;;;;;;;3.08;2.88;;;;;;;;;;5036876;28;20472;-81
2023/09/07 01:44:31;;;;;;;3.00;2.80;;;;;;;;;;5036175;28;20407;-81
2023/09/07 01:46:57;;;;;;;3.43;2.90;;;;;;;;;;5035356;28;20845;-81
2023/09/07 01:49:23;;;;;;;3.63;3.35;;;;;;;;;;5033894;28;20383;-81
2023/09/07 01:51:52;;;;;;;3.13;2.92;;;;;;;;;;5029144;28;20383;-81
2023/09/07 01:54:18;;;;;;;3.10;2.80;;;;;;;;;;5035599;28;20462;-82
2023/09/07 01:56:44;;;;;;;3.30;3.10;;;;;;;;;;5036108;28;20445;-81
2023/09/07 01:59:10;;;;;;;3.17;2.97;;;;;;;;;;5044370;28;20732;-81
2023/09/07 02:01:38;;;;;;;3.05;2.85;;;;;;;;;;5035829;28;20735;-81
2023/09/07 02:04:04;;;;;;;3.45;3.15;;;;;;;;;;5035506;28;20512;-82
2023/09/07 02:06:30;;;;;;;3.10;2.90;;;;;;;;;;5036229;28;20770;-81
2023/09/07 02:08:57;;;;;;;3.85;3.55;;;;;;;;;;5036721;28;20383;-82
2023/09/07 02:11:23;;;;;;;3.03;2.80;;;;;;;;;;5035734;28;20410;-81
2023/09/07 02:13:49;;;;;;;3.47;3.17;;;;;;;;;;5035383;28;20386;-82
2023/09/07 02:16:15;;;;;;;3.47;3.17;;;;;;;;;;5035178;28;20437;-81
2023/09/07 02:18:43;;;;;;;3.83;3.53;;;;;;;;;;5035401;28;20856;-82
2023/09/07 02:21:09;;;;;;;3.40;3.10;;;;;;;;;;5035746;28;20875;-82
2023/09/07 02:23:38;;;;;;;3.10;2.90;;;;;;;;;;5028330;28;20495;-81
2023/09/07 02:26:05;;;;;;;3.40;3.13;;;;;;;;;;5027995;28;20729;-82
2023/09/07 02:28:31;;;;;;;3.30;3.00;;;;;;;;;;5034492;28;20382;-82
2023/09/07 02:31:06;;;;;;;3.30;3.10;;;;;;;;;;5037923;28;20391;-82
2023/09/07 02:33:33;;;;;;;4.20;2.97;;;;;;;;;;5039263;28;20458;-82
2023/09/07 02:35:59;;;;;;;3.43;3.13;;;;;;;;;;5021346;28;20457;-82
2023/09/07 02:38:25;;;;;;;3.40;3.10;;;;;;;;;;5038340;28;20388;-82
2023/09/07 02:40:51;;;;;;;3.33;3.00;;;;;;;;;;5038633;28;20398;-82
2023/09/07 02:43:17;;;;;;;3.50;3.20;;;;;;;;;;5038309;28;20395;-82
2023/09/07 02:45:43;;;;;;;3.60;3.30;;;;;;;;;;5038461;28;20418;-81
2023/09/07 02:48:09;;;;;;;3.40;3.20;;;;;;;;;;5037939;28;20395;-82
2023/09/07 02:50:35;;;;;;;3.20;3.00;;;;;;;;;;5038245;28;20724;-81
2023/09/07 02:53:02;;;;;;;3.30;3.10;;;;;;;;;;5038659;28;20387;-81
2023/09/07 02:55:28;;;;;;;3.30;3.10;;;;;;;;;;5038573;28;20375;-83
2023/09/07 02:57:57;;;;;;;3.20;2.90;;;;;;;;;;5038201;28;20426;-81
2023/09/07 03:00:23;;;;;;;3.40;3.03;;;;;;;;;;5037898;28;20422;-81
2023/09/07 03:02:49;;;;;;;3.00;2.80;;;;;;;;;;5037867;28;20418;-81
2023/09/07 03:05:16;;;;;;;3.25;2.83;;;;;;;;;;5038001;28;20413;-81
2023/09/07 03:07:42;;;;;;;2.93;2.73;;;;;;;;;;5036644;28;20773;-81
2023/09/07 03:10:08;;;;;;;3.40;3.10;;;;;;;;;;5038210;28;20453;-81
2023/09/07 03:12:34;;;;;;;3.20;2.92;;;;;;;;;;5035725;28;20464;-81
2023/09/07 03:15:03;;;;;;;3.53;3.22;;;;;;;;;;5037667;28;20418;-81
2023/09/07 03:17:29;;;;;;;3.28;3.05;;;;;;;;;;5037283;28;20426;-81
2023/09/07 03:19:55;;;;;;;3.42;3.13;;;;;;;;;;5037606;28;20390;-81
2023/09/07 03:22:21;;;;;;;5.10;3.08;;;;;;;;;;5037292;28;20391;-81
2023/09/07 03:24:47;;;;;;;3.03;2.83;;;;;;;;;;5036949;28;20780;-81
2023/09/07 03:27:13;;;;;;;3.17;2.70;;;;;;;;;;5038001;28;20784;-81
2023/09/07 03:29:39;;;;;;;3.20;2.90;;;;;;;;;;5037740;28;20844;-81
2023/09/07 03:32:06;;;;;;;3.10;2.90;;;;;;;;;;5037448;28;20448;-82
2023/09/07 03:34:32;;;;;;;3.00;2.80;;;;;;;;;;5037638;28;20708;-81
2023/09/07 03:36:58;;;;;;;3.75;2.90;;;;;;;;;;5036521;28;21096;-81
2023/09/07 03:39:24;;;;;;;3.08;2.88;;;;;;;;;;5036541;28;20398;-81
2023/09/07 03:41:50;;;;;;;3.07;2.87;;;;;;;;;;5037318;28;20380;-81
2023/09/07 03:44:16;;;;;;;2.95;2.75;;;;;;;;;;5036949;28;20476;-81
2023/09/07 03:46:42;;;;;;;3.17;2.97;;;;;;;;;;5031496;28;20387;-81
2023/09/07 03:49:08;;;;;;;3.10;2.90;;;;;;;;;;5036767;28;20433;-81
2023/09/07 03:51:34;;;;;;;3.38;3.10;;;;;;;;;;5036964;28;20728;-81
2023/09/07 03:54:00;;;;;;;2.90;2.70;;;;;;;;;;5036852;28;20387;-81
2023/09/07 03:56:26;;;;;;;3.10;2.90;;;;;;;;;;5037127;28;20386;-81
2023/09/07 03:58:52;;;;;;;3.30;3.10;;;;;;;;;;5037286;28;20470;-81
2023/09/07 04:01:18;;;;;;;3.20;2.95;;;;;;;;;;5036870;28;20387;-81
2023/09/07 04:03:44;;;;;;;3.00;2.80;;;;;;;;;;5036722;28;20394;-81
2023/09/07 04:06:10;;;;;;;2.90;2.70;;;;;;;;;;5036932;28;20867;-82
2023/09/07 04:08:38;;;;;;;3.15;2.92;;;;;;;;;;5037068;28;20387;-81
2023/09/07 04:11:04;;;;;;;3.00;2.78;;;;;;;;;;5035916;28;20387;-81
2023/09/07 04:13:30;;;;;;;3.72;2.90;;;;;;;;;;5036147;28;20383;-81
2023/09/07 04:15:56;;;;;;;4.70;3.10;;;;;;;;;;5036194;28;20387;-81
2023/09/07 04:18:22;;;;;;;3.33;3.03;;;;;;;;;;5036287;28;20474;-81
2023/09/07 04:20:48;;;;;;;3.27;3.00;;;;;;;;;;5036309;28;20863;-81
2023/09/07 04:23:14;;;;;;;3.33;3.05;;;;;;;;;;5037377;28;20390;-81
2023/09/07 04:25:40;;;;;;;3.13;2.80;;;;;;;;;;5037139;28;20434;-81
2023/09/07 04:28:06;;;;;;;2.83;2.63;;;;;;;;;;5036374;28;20379;-81
2023/09/07 04:30:42;;;;;;;3.22;3.03;;;;;;;;;;5036533;28;20449;-81
2023/09/07 04:33:08;;;;;;;3.20;2.90;;;;;;;;;;5036511;28;20407;-81
2023/09/07 04:35:34;;;;;;;3.20;3.00;;;;;;;;;;5036176;28;20388;-81
2023/09/07 04:38:00;;;;;;;3.10;2.90;;;;;;;;;;5036639;28;20386;-81
2023/09/07 04:40:26;;;;;;;3.85;2.70;;;;;;;;;;5036326;28;20386;-81
2023/09/07 04:42:52;;;;;;;3.00;2.80;;;;;;;;;;5035948;28;20406;-81
2023/09/07 04:45:18;;;;;;;3.17;2.97;;;;;;;;;;5036043;28;20468;-81
2023/09/07 04:47:44;;;;;;;3.40;3.10;;;;;;;;;;5036029;28;20867;-81
2023/09/07 04:50:10;;;;;;;3.10;2.90;;;;;;;;;;5035239;28;20385;-81
2023/09/07 04:52:36;;;;;;;3.58;3.25;;;;;;;;;;5035863;28;20787;-81
2023/09/07 04:55:03;;;;;;;3.47;3.17;;;;;;;;;;5036239;28;20466;-81
2023/09/07 04:57:31;;;;;;;4.57;3.10;;;;;;;;;;5036295;28;20891;-81
2023/09/07 04:59:57;;;;;;;3.10;2.90;;;;;;;;;;5035869;28;20390;-82
2023/09/07 05:02:23;;;;;;;3.70;3.30;;;;;;;;;;5036272;28;20383;-81
2023/09/07 05:04:50;;;;;;;3.67;3.38;;;;;;;;;;5031925;28;20408;-81
2023/09/07 05:07:16;;;;;;;4.63;3.45;;;;;;;;;;5035231;28;20383;-81
2023/09/07 05:09:42;;;;;;;3.40;3.20;;;;;;;;;;5034805;28;20394;-81
2023/09/07 05:12:08;;;;;;;3.60;3.30;;;;;;;;;;5034846;28;20388;-81
2023/09/07 05:14:34;;;;;;;3.60;3.30;;;;;;;;;;5018733;28;20384;-81
2023/09/07 05:17:00;;;;;;;6.18;3.97;;;;;;;;;;5036538;28;20398;-82
2023/09/07 05:19:28;;;;;;;3.72;3.40;;;;;;;;;;5035342;28;20379;-81
2023/09/07 05:21:54;;;;;;;4.47;3.67;;;;;;;;;;5035070;28;20390;-82
2023/09/07 05:24:20;;;;;;;3.60;3.33;;;;;;;;;;5037568;28;20403;-81
2023/09/07 05:26:46;;;;;;;3.15;2.85;;;;;;;;;;5035773;28;20876;-81
2023/09/07 05:29:13;;;;;;;3.90;3.33;;;;;;;;;;5035365;28;20466;-81
2023/09/07 05:31:39;;;;;;;3.53;3.22;;;;;;;;;;5036391;28;20398;-82
2023/09/07 05:34:05;;;;;;;4.13;3.80;;;;;;;;;;5037061;28;20446;-81
2023/09/07 05:36:31;;;;;;;4.22;3.72;;;;;;;;;;5036091;28;20453;-80
2023/09/07 05:38:57;;;;;;;3.80;3.45;;;;;;;;;;5035281;28;20386;-81
2023/09/07 05:41:23;;;;;;;3.80;3.50;;;;;;;;;;5035113;28;20391;-82
2023/09/07 05:43:49;;;;;;;3.58;2.90;;;;;;;;;;5035476;28;20375;-81
2023/09/07 05:46:15;;;;;;;3.83;3.53;;;;;;;;;;5035681;28;20486;-82
2023/09/07 05:48:41;;;;;;;6.13;4.05;;;;;;;;;;5035707;28;20387;-81
2023/09/07 05:51:07;;;;;;;4.10;3.60;;;;;;;;;;5035773;28;20379;-81
2023/09/07 05:53:33;;;;;;;6.28;3.60;;;;;;;;;;5020127;28;20388;-81
2023/09/07 05:55:59;;;;;;;3.92;3.42;;;;;;;;;;5035954;28;20391;-82
2023/09/07 05:58:25;;;;;;;4.30;3.75;;;;;;;;;;5040847;28;20391;-81
2023/09/07 06:00:51;;;;;;;4.07;3.40;;;;;;;;;;5042132;28;20402;-81
2023/09/07 06:03:17;;;;;;;4.00;3.60;;;;;;;;;;5045322;28;20395;-81
2023/09/07 06:05:44;;;;;;;3.80;3.50;;;;;;;;;;5046177;28;20474;-81
2023/09/07 06:08:10;;;;;;;4.70;3.30;;;;;;;;;;5045795;28;20394;-81
2023/09/07 06:10:36;;;;;;;3.63;3.33;;;;;;;;;;5044927;28;20390;-81
2023/09/07 06:13:02;;;;;;;3.70;3.40;;;;;;;;;;5044531;28;20387;-81
2023/09/07 06:15:29;;;;;;;3.53;3.30;;;;;;;;;;5045440;28;20391;-81
2023/09/07 06:17:55;;;;;;;3.72;3.38;;;;;;;;;;5043561;28;20437;-81
2023/09/07 06:20:21;;;;;;;3.83;3.53;;;;;;;;;;5042142;28;20771;-81
2023/09/07 06:22:49;;;;;;;3.88;3.58;;;;;;;;;;5041732;28;20395;-81
2023/09/07 06:25:15;;;;;;;4.30;4.00;;;;;;;;;;5041154;28;20552;-81
2023/09/07 06:27:40;;;;;;;4.07;3.75;;;;;;;;;;5041826;28;20383;-81
2023/09/07 06:30:07;;;;;;;3.90;3.60;;;;;;;;;;5042501;28;20437;-83
2023/09/07 06:32:33;;;;;;;3.88;3.58;;;;;;;;;;5041681;28;20879;-81
2023/09/07 06:34:59;;;;;;;4.03;3.72;;;;;;;;;;5042012;28;20410;-81
2023/09/07 06:37:25;;;;;;;3.75;3.45;;;;;;;;;;5041998;28;20418;-81
2023/09/07 06:39:51;;;;;;;4.75;4.35;;;;;;;;;;5042343;28;20434;-80
2023/09/07 06:42:18;;;;;;;4.60;4.30;;;;;;;;;;5043295;28;20451;-81
2023/09/07 06:44:45;;;;;;;4.10;3.40;;;;;;;;;;5043933;28;20760;-81
2023/09/07 06:47:10;;;;;;;3.78;3.50;;;;;;;;;;5044110;28;20395;-81
2023/09/07 06:49:38;;;;;;;4.28;3.88;;;;;;;;;;5044788;28;20478;-81
2023/09/07 06:52:04;;;;;;;4.10;3.80;;;;;;;;;;5044340;28;20379;-81
2023/09/07 06:54:30;;;;;;;5.18;4.50;;;;;;;;;;5044117;28;20474;-81
2023/09/07 06:56:56;;;;;;;4.35;4.05;;;;;;;;;;5041800;28;20421;-81
2023/09/07 06:59:22;;;;;;;5.03;4.57;;;;;;;;;;5042069;28;20465;-81
2023/09/07 07:01:48;;;;;;;5.03;4.63;;;;;;;;;;5040925;28;20457;-81
2023/09/07 07:04:14;;;;;;;4.93;4.47;;;;;;;;;;5042871;28;20856;-81
2023/09/07 07:06:40;;;;;;;4.93;4.57;;;;;;;;;;5042321;28;20388;-81
2023/09/07 07:09:06;;;;;;;4.82;4.35;;;;;;;;;;5043804;28;20383;-81
2023/09/07 07:11:32;;;;;;;5.18;4.78;;;;;;;;;;5044920;28;20450;-80
2023/09/07 07:13:58;;;;;;;4.93;4.53;;;;;;;;;;5042448;28;20418;-81
2023/09/07 07:16:24;;;;;;;4.90;4.60;;;;;;;;;;5044075;28;20425;-81
2023/09/07 07:18:50;;;;;;;4.78;4.30;;;;;;;;;;5040669;28;20471;-81
2023/09/07 07:21:16;;;;;;;5.20;4.80;;;;;;;;;;5043079;28;20391;-81
2023/09/07 07:23:42;;;;;;;5.83;5.43;;;;;;;;;;5043208;28;20392;-81
2023/09/07 07:26:08;;;;;;;4.90;4.50;;;;;;;;;;5045467;28;20387;-81
2023/09/07 07:28:35;;;;;;;4.60;4.20;;;;;;;;;;5044937;28;20421;-81
2023/09/07 07:31:08;;;;;;;5.03;4.60;;;;;;;;;;5045682;28;20383;-81
2023/09/07 07:33:34;;;;;;;4.57;4.28;;;;;;;;;;5044098;28;20383;-81
2023/09/07 07:36:00;;;;;;;6.00;4.63;;;;;;;;;;5044887;28;20440;-81
2023/09/07 07:38:26;;;;;;;5.40;4.95;;;;;;;;;;5044409;28;20866;-81
2023/09/07 07:40:53;;;;;;;4.90;4.50;;;;;;;;;;5045013;28;20462;-81
2023/09/07 07:43:19;;;;;;;5.63;5.22;;;;;;;;;;5044888;28;20447;-81
2023/09/07 07:45:45;;;;;;;5.22;4.72;;;;;;;;;;5045528;28;20457;-81
2023/09/07 07:48:11;;;;;;;5.45;5.05;;;;;;;;;;5028420;28;20422;-81
2023/09/07 07:50:40;;;;;;;5.47;5.07;;;;;;;;;;5046341;28;20375;-81
2023/09/07 07:53:07;;;;;;;5.40;5.00;;;;;;;;;;5045513;28;20383;-81
2023/09/07 07:55:40;;;;;;;6.18;5.68;;;;;;;;;;5035306;28;20422;-80
2023/09/07 07:58:10;;;;;;;5.57;5.07;;;;;;;;;;5041765;28;20410;-80
2023/09/07 08:00:40;;;;;;;6.13;5.10;;;;;;;;;;5044737;28;20383;-80
2023/09/07 08:03:07;;;;;;;5.40;5.00;;;;;;;;;;5045265;28;21109;-80
2023/09/07 08:05:33;;;;;;;4.45;4.15;;;;;;;;;;5044926;28;20430;-80
2023/09/07 08:08:00;;;;;;;5.40;5.00;;;;;;;;;;5044089;28;20443;-80
2023/09/07 08:10:26;;;;;;;5.40;5.00;;;;;;;;;;5044251;28;20428;-80
2023/09/07 08:12:55;;;;;;;5.30;4.90;;;;;;;;;;5044356;28;20391;-80
2023/09/07 08:15:22;;;;;;;5.20;4.47;;;;;;;;;;5044697;28;20481;-80
2023/09/07 08:17:48;;;;;;;5.22;4.82;;;;;;;;;;5050283;28;20392;-82
2023/09/07 08:20:16;;;;;;;5.28;4.82;;;;;;;;;;5049015;28;20383;-80
2023/09/07 08:22:42;;;;;;;5.05;4.63;;;;;;;;;;5047523;28;20422;-81
2023/09/07 08:25:13;;;;;;;5.28;4.80;;;;;;;;;;5046291;28;20399;-81
2023/09/07 08:27:39;;;;;;;5.05;4.65;;;;;;;;;;5047091;28;20395;-81
2023/09/07 08:30:06;;;;;;;4.27;3.97;;;;;;;;;;5046076;28;20375;-80
2023/09/07 08:32:32;;;;;;;4.77;4.30;;;;;;;;;;5045643;28;20379;-80
2023/09/07 08:35:00;;;;;;;4.80;4.20;;;;;;;;;;5044798;28;20383;-80
2023/09/07 08:37:26;;;;;;;5.37;4.63;;;;;;;;;;5044956;28;20464;-80
2023/09/07 08:39:55;;;;;;;4.68;4.28;;;;;;;;;;5039537;28;20621;-82
2023/09/07 08:42:21;;;;;;;4.35;4.05;;;;;;;;;;5041292;28;20708;-79
2023/09/07 08:44:48;;;;;;;4.15;3.85;;;;;;;;;;5041282;28;20411;-79
2023/09/07 08:47:15;;;;;;;4.38;4.07;;;;;;;;;;5041613;28;20453;-79
2023/09/07 08:49:42;;;;;;;3.90;3.60;;;;;;;;;;5040785;28;20432;-80
2023/09/07 08:52:09;;;;;;;4.70;4.20;;;;;;;;;;5039986;28;20478;-80
2023/09/07 08:54:36;;;;;;;4.63;4.13;;;;;;;;;;5042823;28;20455;-80
2023/09/07 08:57:06;;;;;;;4.45;4.10;;;;;;;;;;5040019;28;20391;-80
2023/09/07 08:59:32;;;;;;;4.68;4.25;;;;;;;;;;5040484;28;20382;-80
2023/09/07 09:01:58;;;;;;;4.70;4.30;;;;;;;;;;5044280;28;20744;-80
2023/09/07 09:04:25;;;;;;;4.22;3.92;;;;;;;;;;5044090;28;20768;-80
2023/09/07 09:06:52;;;;;;;4.30;3.90;;;;;;;;;;5043503;28;20478;-80
2023/09/07 09:09:24;;;;;;;5.37;4.83;;;;;;;;;;5043101;28;20492;-80
2023/09/07 09:11:50;;;;;;;5.65;5.07;;;;;;;;;;5045021;28;20383;-80
2023/09/07 09:14:22;;;;;;;4.82;4.40;;;;;;;;;;5043893;28;20419;-80
2023/09/07 09:16:51;;;;;;;4.00;3.60;;;;;;;;;;5044123;28;20398;-81
2023/09/07 09:19:18;;;;;;;4.43;3.78;;;;;;;;;;5040891;28;20402;-80
2023/09/07 09:21:45;;;;;;;4.82;3.67;;;;;;;;;;5043136;28;20379;-81
2023/09/07 09:24:11;;;;;;;4.10;3.80;;;;;;;;;;5037369;28;20767;-81
2023/09/07 09:26:38;;;;;;;4.80;4.30;;;;;;;;;;5041616;28;20399;-81
2023/09/07 09:29:04;;;;;;;6.53;3.63;;;;;;;;;;5040498;28;20476;-81
2023/09/07 09:31:30;;;;;;;4.43;3.43;;;;;;;;;;5040879;28;20414;-81
2023/09/07 09:33:56;;;;;;;3.90;3.50;;;;;;;;;;5040328;28;20448;-81
2023/09/07 09:36:23;;;;;;;5.53;3.90;;;;;;;;;;5042008;28;20447;-81
2023/09/07 09:38:50;;;;;;;4.07;3.78;;;;;;;;;;5044421;28;20397;-81
2023/09/07 09:41:17;;;;;;;4.95;4.47;;;;;;;;;;5042609;28;20386;-81
2023/09/07 09:43:44;;;;;;;6.05;5.43;;;;;;;;;;5043562;28;20393;-82
2023/09/07 09:46:11;;;;;;;5.97;4.85;;;;;;;;;;5043171;28;20449;-82
2023/09/07 09:48:37;;;;;;;6.65;6.00;;;;;;;;;;5024112;28;20422;-81
2023/09/07 09:51:04;;;;;;;9.37;6.23;;;;;;;;;;5042992;28;20398;-81
2023/09/07 09:53:31;;;;;;;6.18;5.57;;;;;;;;;;5041964;28;20425;-81
2023/09/07 09:55:57;;;;;;;5.30;4.80;;;;;;;;;;5041356;28;20852;-81
2023/09/07 09:58:23;;;;;;;4.05;3.75;;;;;;;;;;5041252;28;20403;-83
2023/09/07 10:00:51;;;;;;;8.13;7.32;;;;;;;;;;5041455;28;20390;-81
2023/09/07 10:03:33;;;;;;;10.30;5.72;;;;;;;;;;5032113;28;20419;-81
2023/09/07 10:06:12;;;;;;;9.18;6.65;;;;;;;;;;5039368;28;20426;-81
2023/09/07 10:08:38;;;;;;;9.88;6.03;;;;;;;;;;5033124;28;20931;-82
2023/09/07 10:11:10;;;;;;;8.52;6.15;;;;;;;;;;5038617;28;20387;-82
2023/09/07 10:13:36;;;;;;;7.55;6.45;;;;;;;;;;5039189;28;20380;-81
2023/09/07 10:16:11;;;;;;;8.45;5.03;;;;;;;;;;5033715;28;20450;-81
2023/09/07 10:18:38;;;;;;;6.05;5.18;;;;;;;;;;5038589;28;20387;-81
2023/09/07 10:21:05;;;;;;;7.07;5.10;;;;;;;;;;5038675;28;20379;-81
2023/09/07 10:23:41;;;;;;;6.80;4.70;;;;;;;;;;5038342;28;20398;-81
2023/09/07 10:26:11;;;;;;;7.72;4.90;;;;;;;;;;5038406;28;20466;-81
2023/09/07 10:28:38;;;;;;;6.75;5.03;;;;;;;;;;5038856;28;20456;-81
2023/09/07 10:31:04;;;;;;;5.32;4.82;;;;;;;;;;5038298;28;20826;-82
2023/09/07 10:33:34;;;;;;;5.23;4.60;;;;;;;;;;5038659;28;20381;-81
2023/09/07 10:36:01;;;;;;;6.37;4.77;;;;;;;;;;5038739;28;20379;-82
2023/09/07 10:38:27;;;;;;;5.63;4.65;;;;;;;;;;5033068;28;20390;-81
2023/09/07 10:40:57;;;;;;;5.40;4.65;;;;;;;;;;5038162;28;20399;-82
2023/09/07 10:43:24;;;;;;;4.88;4.10;;;;;;;;;;5038409;28;20454;-82
2023/09/07 10:45:50;;;;;;;4.40;3.85;;;;;;;;;;5038438;28;20413;-81
2023/09/07 10:48:17;;;;;;;6.45;3.83;;;;;;;;;;5038204;28;20490;-81
2023/09/07 10:50:46;;;;;;;4.60;4.18;;;;;;;;;;5038345;28;20387;-82
2023/09/07 10:53:14;;;;;;;6.72;4.00;;;;;;;;;;5037355;28;20428;-81
2023/09/07 10:55:40;;;;;;;4.30;3.87;;;;;;;;;;5036776;28;20380;-82
2023/09/07 10:58:06;;;;;;;6.13;4.10;;;;;;;;;;5040911;28;20411;-83
2023/09/07 11:00:33;;;;;;;4.35;3.90;;;;;;;;;;5032272;28;20383;-82
2023/09/07 11:02:59;;;;;;;4.75;3.63;;;;;;;;;;5037424;28;20383;-82
2023/09/07 11:05:26;;;;;;;4.93;3.75;;;;;;;;;;5037247;28;20949;-82
2023/09/07 11:07:52;;;;;;;3.70;3.05;;;;;;;;;;5035942;28;20379;-82
2023/09/07 11:10:18;;;;;;;5.15;3.20;;;;;;;;;;5037468;28;20422;-81
2023/09/07 11:12:44;;;;;;;3.67;3.28;;;;;;;;;;5037298;28;20379;-81
2023/09/07 11:15:11;;;;;;;4.88;3.30;;;;;;;;;;5032057;28;20690;-81
2023/09/07 11:17:38;;;;;;;5.38;3.58;;;;;;;;;;5037113;28;20387;-81
2023/09/07 11:20:06;;;;;;;3.55;3.25;;;;;;;;;;5033793;28;20388;-82
2023/09/07 11:22:32;;;;;;;4.85;3.33;;;;;;;;;;5037821;28;20485;-81
2023/09/07 11:25:00;;;;;;;4.03;3.53;;;;;;;;;;5037387;28;20407;-81
2023/09/07 11:27:29;;;;;;;5.15;3.00;;;;;;;;;;5037467;28;20387;-82
2023/09/07 11:29:56;;;;;;;4.82;3.30;;;;;;;;;;5035626;28;20375;-82
2023/09/07 11:32:22;;;;;;;3.28;2.97;;;;;;;;;;5037354;28;20379;-82
2023/09/07 11:34:52;;;;;;;4.00;3.00;;;;;;;;;;5037575;28;20399;-82
2023/09/07 11:37:19;;;;;;;5.40;3.03;;;;;;;;;;5036680;28;20815;-82
2023/09/07 11:39:45;;;;;;;4.33;2.97;;;;;;;;;;5037697;28;20841;-82
2023/09/07 11:42:11;;;;;;;4.47;3.00;;;;;;;;;;5037173;28;20391;-83
2023/09/07 11:44:37;;;;;;;3.50;3.13;;;;;;;;;;5037573;28;20406;-84
2023/09/07 11:47:03;;;;;;;3.45;3.22;;;;;;;;;;5042655;28;20729;-84
2023/09/07 11:49:31;;;;;;;4.60;3.28;;;;;;;;;;5042439;28;20779;-85
2023/09/07 11:51:57;;;;;;;3.70;3.30;;;;;;;;;;5042686;28;20379;-85
2023/09/07 11:54:23;;;;;;;5.15;3.30;;;;;;;;;;5042711;28;20906;-84
2023/09/07 11:56:49;;;;;;;5.57;3.47;;;;;;;;;;5042662;28;20395;-85
2023/09/07 11:59:18;;;;;;;4.03;3.57;;;;;;;;;;5041898;28;20380;-85
2023/09/07 12:01:44;;;;;;;4.00;3.35;;;;;;;;;;5024835;28;20394;-85
2023/09/07 12:04:10;;;;;;;4.00;3.60;;;;;;;;;;5034891;28;20400;-84
2023/09/07 12:06:36;;;;;;;4.10;3.53;;;;;;;;;;5043101;28;20387;-84
2023/09/07 12:09:03;;;;;;;4.13;3.40;;;;;;;;;;5042915;28;20460;-84
2023/09/07 12:11:30;;;;;;;4.73;3.70;;;;;;;;;;5040828;28;20398;-85
2023/09/07 12:13:56;;;;;;;3.33;3.05;;;;;;;;;;5024932;28;20529;-84
2023/09/07 12:16:23;;;;;;;4.22;3.50;;;;;;;;;;5042151;28;20391;-84
2023/09/07 12:18:49;;;;;;;5.07;3.40;;;;;;;;;;5042679;28;20387;-84
2023/09/07 12:21:15;;;;;;;4.05;3.63;;;;;;;;;;5042057;28;20803;-85
2023/09/07 12:23:41;;;;;;;4.68;3.60;;;;;;;;;;5041786;28;20423;-84
2023/09/07 12:26:08;;;;;;;7.90;3.75;;;;;;;;;;5042252;28;20410;-84
2023/09/07 12:28:34;;;;;;;3.90;3.58;;;;;;;;;;5042261;28;20414;-84
2023/09/07 12:31:00;;;;;;;7.75;3.90;;;;;;;;;;5042633;28;20395;-85
2023/09/07 12:33:29;;;;;;;6.68;4.40;;;;;;;;;;5040590;28;20924;-84
2023/09/07 12:35:55;;;;;;;4.38;3.97;;;;;;;;;;5024294;28;20900;-84
2023/09/07 12:38:24;;;;;;;4.35;3.88;;;;;;;;;;5041396;28;20383;-84
2023/09/07 12:40:50;;;;;;;4.13;3.70;;;;;;;;;;5042553;28;20418;-84
2023/09/07 12:43:16;;;;;;;4.80;3.80;;;;;;;;;;5041444;28;20383;-84
2023/09/07 12:45:42;;;;;;;3.67;3.33;;;;;;;;;;5041767;28;20458;-84
2023/09/07 12:48:09;;;;;;;3.75;3.45;;;;;;;;;;5041503;28;20399;-84
2023/09/07 12:50:35;;;;;;;4.32;3.53;;;;;;;;;;5041488;28;20405;-85
2023/09/07 12:53:01;;;;;;;4.28;3.50;;;;;;;;;;5041107;28;20377;-84
2023/09/07 12:55:29;;;;;;;4.07;3.70;;;;;;;;;;5040568;28;20432;-84
2023/09/07 12:57:55;;;;;;;3.80;3.50;;;;;;;;;;5036893;28;20477;-84
2023/09/07 13:00:21;;;;;;;3.88;3.53;;;;;;;;;;5040119;28;20423;-84
2023/09/07 13:02:47;;;;;;;3.70;3.40;;;;;;;;;;5040569;28;20421;-84
2023/09/07 13:05:13;;;;;;;4.00;3.60;;;;;;;;;;5023016;28;20469;-84
2023/09/07 13:07:40;;;;;;;3.78;3.47;;;;;;;;;;5041095;28;20383;-84
2023/09/07 13:10:06;;;;;;;3.75;3.33;;;;;;;;;;5015900;28;20413;-84
2023/09/07 13:12:32;;;;;;;4.63;3.53;;;;;;;;;;5036783;28;20375;-84
2023/09/07 13:14:58;;;;;;;4.85;3.30;;;;;;;;;;5040489;28;20403;-84
2023/09/07 13:17:25;;;;;;;4.00;3.70;;;;;;;;;;5039391;28;20791;-84
2023/09/07 13:19:51;;;;;;;4.53;3.92;;;;;;;;;;5022145;28;20394;-84
2023/09/07 13:22:17;;;;;;;4.10;3.70;;;;;;;;;;5039433;28;20387;-85
2023/09/07 13:24:43;;;;;;;4.55;4.00;;;;;;;;;;5040117;28;20944;-85
2023/09/07 13:27:12;;;;;;;3.97;3.60;;;;;;;;;;5030647;28;20443;-84
2023/09/07 13:29:38;;;;;;;4.00;3.70;;;;;;;;;;5038993;28;20460;-84
2023/09/07 13:32:04;;;;;;;3.90;3.50;;;;;;;;;;5040061;28;20387;-85
2023/09/07 13:34:30;;;;;;;3.85;3.53;;;;;;;;;;5023411;28;20411;-83
2023/09/07 13:36:56;;;;;;;3.40;3.20;;;;;;;;;;5040499;28;20391;-84
2023/09/07 13:39:23;;;;;;;3.88;3.38;;;;;;;;;;5039276;28;20394;-84
2023/09/07 13:41:49;;;;;;;4.57;3.70;;;;;;;;;;5040575;28;20418;-84
2023/09/07 13:44:15;;;;;;;4.17;3.80;;;;;;;;;;5040046;28;20402;-84
2023/09/07 13:46:41;;;;;;;3.83;3.53;;;;;;;;;;5041773;28;20438;-84
2023/09/07 13:49:07;;;;;;;3.50;3.20;;;;;;;;;;5039436;28;20474;-85
2023/09/07 13:51:38;;;;;;;5.90;4.18;;;;;;;;;;5040699;28;20530;-85
2023/09/07 13:54:07;;;;;;;4.10;3.70;;;;;;;;;;5040673;28;20417;-84
2023/09/07 13:56:33;;;;;;;4.75;3.40;;;;;;;;;;5039251;28;20462;-84
2023/09/07 13:58:59;;;;;;;3.67;3.30;;;;;;;;;;5040595;28;20383;-84
2023/09/07 14:01:26;;;;;;;3.50;3.20;;;;;;;;;;5040872;28;20387;-84
2023/09/07 14:03:52;;;;;;;3.40;3.20;;;;;;;;;;5023127;28;20383;-84
2023/09/07 14:06:20;;;;;;;3.40;3.10;;;;;;;;;;5040143;28;20464;-84
2023/09/07 14:08:48;;;;;;;4.93;2.85;;;;;;;;;;5041057;28;20416;-84
2023/09/07 14:11:14;;;;;;;4.00;3.10;;;;;;;;;;5040958;28;20375;-84
2023/09/07 14:13:40;;;;;;;5.68;3.15;;;;;;;;;;5041386;28;20383;-84
2023/09/07 14:16:07;;;;;;;3.13;2.83;;;;;;;;;;5040369;28;20742;-84
2023/09/07 14:18:33;;;;;;;3.20;2.90;;;;;;;;;;5040576;28;20444;-84
2023/09/07 14:21:00;;;;;;;3.13;2.90;;;;;;;;;;5041879;28;20391;-84
2023/09/07 14:23:26;;;;;;;3.00;2.70;;;;;;;;;;5043998;28;20409;-84
2023/09/07 14:25:53;;;;;;;3.35;2.80;;;;;;;;;;5043410;28;20437;-84
2023/09/07 14:28:19;;;;;;;3.50;2.90;;;;;;;;;;5043175;28;20399;-84
2023/09/07 14:30:45;;;;;;;3.20;3.00;;;;;;;;;;5044540;28;20449;-84
2023/09/07 14:33:11;;;;;;;3.13;2.90;;;;;;;;;;5043722;28;20394;-84
2023/09/07 14:35:37;;;;;;;3.25;3.05;;;;;;;;;;5043256;28;20415;-84
2023/09/07 14:38:03;;;;;;;2.92;2.72;;;;;;;;;;5044431;28;20437;-84
2023/09/07 14:40:29;;;;;;;3.83;3.00;;;;;;;;;;5044550;28;20401;-84
2023/09/07 14:42:57;;;;;;;3.70;3.17;;;;;;;;;;5044781;28;20384;-84